<?xml version="1.0" encoding="UTF-8" standalone="no" ?>
<gpx xmlns="http://www.topografix.com/GPX/1/1" xmlns:xsi="http://www.w3.org/2001/XMLSchema-instance" xsi:schemaLocation="http://www.topografix.com/GPX/1/1 http://www.topografix.com/GPX/1/1/gpx.xsd" version="1.1" creator="VisuGPX - https://www.visugpx.com">
  <metadata>
    <name>Trou de la Mouche en boucle par les combes du Grand Cret et de Paccaly (Aravis)</name>
    <desc><![CDATA[Au départ du Parking des Confins.
.
photos là: [url]https://goo.gl/photos/gkx2Q4szKepk3RkLA[/url]
celles de kikou: [url]https://get.google.com/albumarchive/107855777902247453235/album/AF1QipMnLY_xaem2J8cBkkGPb9IcRtquT3qbThTvKMpN[/url]]]></desc>
  </metadata>
  <wpt lat="45.9159" lon="6.51262">
    <ele>2453.391846</ele>
    <name><![CDATA[001]]></name>
    <desc><![CDATA[17-JUN-12]]></desc>
    <cmt><![CDATA[17-JUN-12]]></cmt>
  </wpt>
  <trk>
    <name><![CDATA[Trou de la Mouche en boucle par les combes du Grand Cret et de Paccaly (Aravis)_1]]></name>
    <trkseg>
      <trkpt lat="45.92342" lon="6.48345">
        <ele>1445.960205</ele>
        <time>2012-06-17T05:37:40Z</time>
      </trkpt>
      <trkpt lat="45.92233" lon="6.48405">
        <ele>1453.650879</ele>
        <time>2012-06-17T05:39:34Z</time>
      </trkpt>
      <trkpt lat="45.92147" lon="6.4851">
        <ele>1468.070557</ele>
        <time>2012-06-17T05:42:49Z</time>
      </trkpt>
      <trkpt lat="45.92144" lon="6.48558">
        <ele>1468.070557</ele>
        <time>2012-06-17T05:43:59Z</time>
      </trkpt>
      <trkpt lat="45.92117" lon="6.48657">
        <ele>1467.5896</ele>
        <time>2012-06-17T05:45:10Z</time>
      </trkpt>
      <trkpt lat="45.92156" lon="6.48728">
        <ele>1462.30249</ele>
        <time>2012-06-17T05:46:09Z</time>
      </trkpt>
      <trkpt lat="45.92176" lon="6.48821">
        <ele>1456.053955</ele>
        <time>2012-06-17T05:47:14Z</time>
      </trkpt>
      <trkpt lat="45.92161" lon="6.48865">
        <ele>1454.131592</ele>
        <time>2012-06-17T05:47:46Z</time>
      </trkpt>
      <trkpt lat="45.92159" lon="6.49003">
        <ele>1463.744385</ele>
        <time>2012-06-17T05:49:58Z</time>
      </trkpt>
      <trkpt lat="45.92186" lon="6.49092">
        <ele>1476.241699</ele>
        <time>2012-06-17T05:51:42Z</time>
      </trkpt>
      <trkpt lat="45.92205" lon="6.49293">
        <ele>1518.059082</ele>
        <time>2012-06-17T05:56:10Z</time>
      </trkpt>
      <trkpt lat="45.92225" lon="6.49333">
        <ele>1527.19165</ele>
        <time>2012-06-17T05:57:09Z</time>
      </trkpt>
      <trkpt lat="45.9226" lon="6.49605">
        <ele>1602.655029</ele>
        <time>2012-06-17T06:05:43Z</time>
      </trkpt>
      <trkpt lat="45.92236" lon="6.49617">
        <ele>1612.749023</ele>
        <time>2012-06-17T06:06:51Z</time>
      </trkpt>
      <trkpt lat="45.92243" lon="6.4963">
        <ele>1616.113525</ele>
        <time>2012-06-17T06:07:16Z</time>
      </trkpt>
      <trkpt lat="45.92223" lon="6.4965">
        <ele>1627.168701</ele>
        <time>2012-06-17T06:08:27Z</time>
      </trkpt>
      <trkpt lat="45.92232" lon="6.49692">
        <ele>1643.510986</ele>
        <time>2012-06-17T06:09:43Z</time>
      </trkpt>
      <trkpt lat="45.92194" lon="6.49755">
        <ele>1667.543945</ele>
        <time>2012-06-17T06:12:08Z</time>
      </trkpt>
      <trkpt lat="45.92141" lon="6.49779">
        <ele>1683.405762</ele>
        <time>2012-06-17T06:14:11Z</time>
      </trkpt>
      <trkpt lat="45.92122" lon="6.49766">
        <ele>1687.731689</ele>
        <time>2012-06-17T06:14:45Z</time>
      </trkpt>
      <trkpt lat="45.92083" lon="6.49786">
        <ele>1706.477295</ele>
        <time>2012-06-17T06:16:30Z</time>
      </trkpt>
      <trkpt lat="45.92078" lon="6.49805">
        <ele>1712.726074</ele>
        <time>2012-06-17T06:17:13Z</time>
      </trkpt>
      <trkpt lat="45.92038" lon="6.498">
        <ele>1720.897217</ele>
        <time>2012-06-17T06:18:41Z</time>
      </trkpt>
      <trkpt lat="45.92045" lon="6.49824">
        <ele>1737.720215</ele>
        <time>2012-06-17T06:21:22Z</time>
      </trkpt>
      <trkpt lat="45.92036" lon="6.49877">
        <ele>1741.565674</ele>
        <time>2012-06-17T06:24:16Z</time>
      </trkpt>
      <trkpt lat="45.92009" lon="6.49879">
        <ele>1750.697998</ele>
        <time>2012-06-17T06:25:25Z</time>
      </trkpt>
      <trkpt lat="45.92005" lon="6.49895">
        <ele>1758.388672</ele>
        <time>2012-06-17T06:25:59Z</time>
      </trkpt>
      <trkpt lat="45.91994" lon="6.49894">
        <ele>1766.079102</ele>
        <time>2012-06-17T06:26:24Z</time>
      </trkpt>
      <trkpt lat="45.9196" lon="6.49949">
        <ele>1791.554199</ele>
        <time>2012-06-17T06:28:57Z</time>
      </trkpt>
      <trkpt lat="45.9196" lon="6.49967">
        <ele>1787.228027</ele>
        <time>2012-06-17T06:29:22Z</time>
      </trkpt>
      <trkpt lat="45.91951" lon="6.49956">
        <ele>1811.26123</ele>
        <time>2012-06-17T06:30:12Z</time>
      </trkpt>
      <trkpt lat="45.91943" lon="6.4997">
        <ele>1809.338623</ele>
        <time>2012-06-17T06:30:53Z</time>
      </trkpt>
      <trkpt lat="45.91928" lon="6.49963">
        <ele>1811.741943</ele>
        <time>2012-06-17T06:31:21Z</time>
      </trkpt>
      <trkpt lat="45.91915" lon="6.49936">
        <ele>1820.393799</ele>
        <time>2012-06-17T06:32:20Z</time>
      </trkpt>
      <trkpt lat="45.91902" lon="6.49943">
        <ele>1824.239014</ele>
        <time>2012-06-17T06:32:51Z</time>
      </trkpt>
      <trkpt lat="45.91871" lon="6.49915">
        <ele>1835.293945</ele>
        <time>2012-06-17T06:34:02Z</time>
      </trkpt>
      <trkpt lat="45.91867" lon="6.49947">
        <ele>1841.062012</ele>
        <time>2012-06-17T06:34:41Z</time>
      </trkpt>
      <trkpt lat="45.9184" lon="6.49938">
        <ele>1850.19458</ele>
        <time>2012-06-17T06:35:41Z</time>
      </trkpt>
      <trkpt lat="45.91838" lon="6.4992">
        <ele>1857.404541</ele>
        <time>2012-06-17T06:36:03Z</time>
      </trkpt>
      <trkpt lat="45.91825" lon="6.4991">
        <ele>1860.769043</ele>
        <time>2012-06-17T06:37:12Z</time>
      </trkpt>
      <trkpt lat="45.91768" lon="6.49936">
        <ele>1876.630859</ele>
        <time>2012-06-17T06:43:13Z</time>
      </trkpt>
      <trkpt lat="45.91712" lon="6.49911">
        <ele>1893.453857</ele>
        <time>2012-06-17T06:44:50Z</time>
      </trkpt>
      <trkpt lat="45.91686" lon="6.49877">
        <ele>1898.260254</ele>
        <time>2012-06-17T06:45:53Z</time>
      </trkpt>
      <trkpt lat="45.91682" lon="6.49926">
        <ele>1910.276855</ele>
        <time>2012-06-17T06:47:16Z</time>
      </trkpt>
      <trkpt lat="45.91668" lon="6.49967">
        <ele>1923.254883</ele>
        <time>2012-06-17T06:48:41Z</time>
      </trkpt>
      <trkpt lat="45.91683" lon="6.5006">
        <ele>1936.713135</ele>
        <time>2012-06-17T06:52:40Z</time>
      </trkpt>
      <trkpt lat="45.91717" lon="6.50085">
        <ele>1948.729736</ele>
        <time>2012-06-17T06:53:37Z</time>
      </trkpt>
      <trkpt lat="45.91707" lon="6.50088">
        <ele>1955.939453</ele>
        <time>2012-06-17T06:54:01Z</time>
      </trkpt>
      <trkpt lat="45.91712" lon="6.50101">
        <ele>1957.862305</ele>
        <time>2012-06-17T06:54:19Z</time>
      </trkpt>
      <trkpt lat="45.91702" lon="6.50101">
        <ele>1964.591553</ele>
        <time>2012-06-17T06:54:42Z</time>
      </trkpt>
      <trkpt lat="45.91705" lon="6.50121">
        <ele>1968.436768</ele>
        <time>2012-06-17T06:55:09Z</time>
      </trkpt>
      <trkpt lat="45.91687" lon="6.5012">
        <ele>1975.165771</ele>
        <time>2012-06-17T06:55:45Z</time>
      </trkpt>
      <trkpt lat="45.91693" lon="6.50148">
        <ele>1978.049805</ele>
        <time>2012-06-17T06:56:20Z</time>
      </trkpt>
      <trkpt lat="45.91662" lon="6.50142">
        <ele>1990.066406</ele>
        <time>2012-06-17T06:57:19Z</time>
      </trkpt>
      <trkpt lat="45.9167" lon="6.50172">
        <ele>1995.834229</ele>
        <time>2012-06-17T06:58:02Z</time>
      </trkpt>
      <trkpt lat="45.91651" lon="6.50172">
        <ele>2002.563477</ele>
        <time>2012-06-17T06:58:41Z</time>
      </trkpt>
      <trkpt lat="45.91657" lon="6.50193">
        <ele>2005.927979</ele>
        <time>2012-06-17T06:59:08Z</time>
      </trkpt>
      <trkpt lat="45.91646" lon="6.50186">
        <ele>2009.773193</ele>
        <time>2012-06-17T06:59:28Z</time>
      </trkpt>
      <trkpt lat="45.91652" lon="6.50251">
        <ele>2024.193115</ele>
        <time>2012-06-17T07:01:12Z</time>
      </trkpt>
      <trkpt lat="45.9166" lon="6.50263">
        <ele>2029.961182</ele>
        <time>2012-06-17T07:01:35Z</time>
      </trkpt>
      <trkpt lat="45.91659" lon="6.50293">
        <ele>2034.767822</ele>
        <time>2012-06-17T07:02:24Z</time>
      </trkpt>
      <trkpt lat="45.91645" lon="6.50285">
        <ele>2043.419434</ele>
        <time>2012-06-17T07:02:56Z</time>
      </trkpt>
      <trkpt lat="45.91639" lon="6.50357">
        <ele>2058.319824</ele>
        <time>2012-06-17T07:05:38Z</time>
      </trkpt>
      <trkpt lat="45.91629" lon="6.50362">
        <ele>2058.319824</ele>
        <time>2012-06-17T07:05:53Z</time>
      </trkpt>
      <trkpt lat="45.91619" lon="6.50434">
        <ele>2078.988281</ele>
        <time>2012-06-17T07:08:12Z</time>
      </trkpt>
      <trkpt lat="45.91608" lon="6.50452">
        <ele>2085.717529</ele>
        <time>2012-06-17T07:08:47Z</time>
      </trkpt>
      <trkpt lat="45.91613" lon="6.50476">
        <ele>2090.523926</ele>
        <time>2012-06-17T07:09:22Z</time>
      </trkpt>
      <trkpt lat="45.91605" lon="6.50519">
        <ele>2102.059814</ele>
        <time>2012-06-17T07:10:36Z</time>
      </trkpt>
      <trkpt lat="45.91585" lon="6.50526">
        <ele>2111.67334</ele>
        <time>2012-06-17T07:11:20Z</time>
      </trkpt>
      <trkpt lat="45.9156" lon="6.50491">
        <ele>2115.518555</ele>
        <time>2012-06-17T07:12:16Z</time>
      </trkpt>
      <trkpt lat="45.91542" lon="6.50487">
        <ele>2119.36377</ele>
        <time>2012-06-17T07:12:45Z</time>
      </trkpt>
      <trkpt lat="45.91511" lon="6.50519">
        <ele>2132.822021</ele>
        <time>2012-06-17T07:14:16Z</time>
      </trkpt>
      <trkpt lat="45.91498" lon="6.5058">
        <ele>2146.76123</ele>
        <time>2012-06-17T07:17:21Z</time>
      </trkpt>
      <trkpt lat="45.91464" lon="6.50528">
        <ele>2157.335938</ele>
        <time>2012-06-17T07:18:47Z</time>
      </trkpt>
      <trkpt lat="45.91407" lon="6.50508">
        <ele>2173.678223</ele>
        <time>2012-06-17T07:20:32Z</time>
      </trkpt>
      <trkpt lat="45.91403" lon="6.50551">
        <ele>2185.69458</ele>
        <time>2012-06-17T07:21:41Z</time>
      </trkpt>
      <trkpt lat="45.91417" lon="6.50712">
        <ele>2207.805176</ele>
        <time>2012-06-17T07:26:58Z</time>
      </trkpt>
      <trkpt lat="45.91436" lon="6.50748">
        <ele>2219.34082</ele>
        <time>2012-06-17T07:28:00Z</time>
      </trkpt>
      <trkpt lat="45.91429" lon="6.50757">
        <ele>2222.224854</ele>
        <time>2012-06-17T07:28:18Z</time>
      </trkpt>
      <trkpt lat="45.91439" lon="6.5079">
        <ele>2229.43457</ele>
        <time>2012-06-17T07:29:13Z</time>
      </trkpt>
      <trkpt lat="45.91433" lon="6.50796">
        <ele>2231.837891</ele>
        <time>2012-06-17T07:29:38Z</time>
      </trkpt>
      <trkpt lat="45.91455" lon="6.5086">
        <ele>2243.373779</ele>
        <time>2012-06-17T07:31:15Z</time>
      </trkpt>
      <trkpt lat="45.91446" lon="6.50867">
        <ele>2247.699707</ele>
        <time>2012-06-17T07:31:35Z</time>
      </trkpt>
      <trkpt lat="45.91458" lon="6.50914">
        <ele>2257.312988</ele>
        <time>2012-06-17T07:32:59Z</time>
      </trkpt>
      <trkpt lat="45.91453" lon="6.50926">
        <ele>2266.926025</ele>
        <time>2012-06-17T07:33:26Z</time>
      </trkpt>
      <trkpt lat="45.91467" lon="6.50972">
        <ele>2275.097168</ele>
        <time>2012-06-17T07:35:10Z</time>
      </trkpt>
      <trkpt lat="45.91489" lon="6.50984">
        <ele>2285.671875</ele>
        <time>2012-06-17T07:36:17Z</time>
      </trkpt>
      <trkpt lat="45.91474" lon="6.51011">
        <ele>2298.168701</ele>
        <time>2012-06-17T07:37:59Z</time>
      </trkpt>
      <trkpt lat="45.91489" lon="6.51049">
        <ele>2319.318115</ele>
        <time>2012-06-17T07:40:25Z</time>
      </trkpt>
      <trkpt lat="45.91528" lon="6.51093">
        <ele>2345.75415</ele>
        <time>2012-06-17T07:43:24Z</time>
      </trkpt>
      <trkpt lat="45.91521" lon="6.511">
        <ele>2349.118896</ele>
        <time>2012-06-17T07:43:45Z</time>
      </trkpt>
      <trkpt lat="45.91527" lon="6.51116">
        <ele>2358.251221</ele>
        <time>2012-06-17T07:44:46Z</time>
      </trkpt>
      <trkpt lat="45.91514" lon="6.51164">
        <ele>2373.151855</ele>
        <time>2012-06-17T07:47:05Z</time>
      </trkpt>
      <trkpt lat="45.9154" lon="6.51174">
        <ele>2387.09082</ele>
        <time>2012-06-17T07:49:15Z</time>
      </trkpt>
      <trkpt lat="45.91534" lon="6.51182">
        <ele>2390.455322</ele>
        <time>2012-06-17T07:49:49Z</time>
      </trkpt>
      <trkpt lat="45.91558" lon="6.51206">
        <ele>2412.565918</ele>
        <time>2012-06-17T07:57:05Z</time>
      </trkpt>
      <trkpt lat="45.91567" lon="6.51236">
        <ele>2426.504883</ele>
        <time>2012-06-17T07:58:44Z</time>
      </trkpt>
      <trkpt lat="45.91595" lon="6.51258">
        <ele>2451.018555</ele>
        <time>2012-06-17T08:04:43Z</time>
      </trkpt>
      <trkpt lat="45.91584" lon="6.51271">
        <ele>2460.151123</ele>
        <time>2012-06-17T08:05:30Z</time>
      </trkpt>
      <trkpt lat="45.91592" lon="6.51291">
        <ele>2454.86377</ele>
        <time>2012-06-17T08:06:52Z</time>
      </trkpt>
      <trkpt lat="45.91582" lon="6.51291">
        <ele>2452.941162</ele>
        <time>2012-06-17T08:07:48Z</time>
      </trkpt>
      <trkpt lat="45.91594" lon="6.51296">
        <ele>2453.421875</ele>
        <time>2012-06-17T08:14:11Z</time>
      </trkpt>
      <trkpt lat="45.91579" lon="6.51291">
        <ele>2449.57666</ele>
        <time>2012-06-17T08:15:35Z</time>
      </trkpt>
      <trkpt lat="45.9159" lon="6.51292">
        <ele>2451.979736</ele>
        <time>2012-06-17T08:15:45Z</time>
      </trkpt>
      <trkpt lat="45.91579" lon="6.51294">
        <ele>2459.189697</ele>
        <time>2012-06-17T08:16:27Z</time>
      </trkpt>
      <trkpt lat="45.91596" lon="6.51294">
        <ele>2446.212158</ele>
        <time>2012-06-17T08:26:53Z</time>
      </trkpt>
      <trkpt lat="45.91587" lon="6.51294">
        <ele>2448.615234</ele>
        <time>2012-06-17T08:27:35Z</time>
      </trkpt>
      <trkpt lat="45.91605" lon="6.513">
        <ele>2457.26709</ele>
        <time>2012-06-17T08:31:26Z</time>
      </trkpt>
      <trkpt lat="45.91594" lon="6.51297">
        <ele>2451.499268</ele>
        <time>2012-06-17T08:32:15Z</time>
      </trkpt>
      <trkpt lat="45.91582" lon="6.51356">
        <ele>2436.118164</ele>
        <time>2012-06-17T08:33:49Z</time>
      </trkpt>
      <trkpt lat="45.91561" lon="6.51393">
        <ele>2416.411133</ele>
        <time>2012-06-17T08:38:12Z</time>
      </trkpt>
      <trkpt lat="45.91586" lon="6.51547">
        <ele>2371.709717</ele>
        <time>2012-06-17T08:43:39Z</time>
      </trkpt>
      <trkpt lat="45.91601" lon="6.51581">
        <ele>2371.229004</ele>
        <time>2012-06-17T08:44:18Z</time>
      </trkpt>
      <trkpt lat="45.91668" lon="6.51624">
        <ele>2356.328613</ele>
        <time>2012-06-17T08:46:01Z</time>
      </trkpt>
      <trkpt lat="45.91707" lon="6.51693">
        <ele>2367.864502</ele>
        <time>2012-06-17T08:48:49Z</time>
      </trkpt>
      <trkpt lat="45.91724" lon="6.51699">
        <ele>2372.671143</ele>
        <time>2012-06-17T08:49:47Z</time>
      </trkpt>
      <trkpt lat="45.91751" lon="6.51736">
        <ele>2378.919434</ele>
        <time>2012-06-17T08:51:02Z</time>
      </trkpt>
      <trkpt lat="45.91774" lon="6.51793">
        <ele>2369.306641</ele>
        <time>2012-06-17T08:53:12Z</time>
      </trkpt>
      <trkpt lat="45.91797" lon="6.51799">
        <ele>2366.422607</ele>
        <time>2012-06-17T08:54:04Z</time>
      </trkpt>
      <trkpt lat="45.91796" lon="6.51789">
        <ele>2369.306641</ele>
        <time>2012-06-17T08:54:51Z</time>
      </trkpt>
      <trkpt lat="45.91829" lon="6.51775">
        <ele>2352.483398</ele>
        <time>2012-06-17T08:56:29Z</time>
      </trkpt>
      <trkpt lat="45.91838" lon="6.51735">
        <ele>2337.583008</ele>
        <time>2012-06-17T08:57:32Z</time>
      </trkpt>
      <trkpt lat="45.91923" lon="6.51573">
        <ele>2251.064209</ele>
        <time>2012-06-17T09:03:28Z</time>
      </trkpt>
      <trkpt lat="45.91939" lon="6.515">
        <ele>2224.628174</ele>
        <time>2012-06-17T09:04:55Z</time>
      </trkpt>
      <trkpt lat="45.9193" lon="6.51435">
        <ele>2205.882324</ele>
        <time>2012-06-17T09:05:46Z</time>
      </trkpt>
      <trkpt lat="45.91936" lon="6.51447">
        <ele>2187.617188</ele>
        <time>2012-06-17T09:06:37Z</time>
      </trkpt>
      <trkpt lat="45.91932" lon="6.51433">
        <ele>2200.594971</ele>
        <time>2012-06-17T09:07:25Z</time>
      </trkpt>
      <trkpt lat="45.91959" lon="6.51347">
        <ele>2161.181152</ele>
        <time>2012-06-17T09:08:04Z</time>
      </trkpt>
      <trkpt lat="45.9196" lon="6.51316">
        <ele>2159.258545</ele>
        <time>2012-06-17T09:09:12Z</time>
      </trkpt>
      <trkpt lat="45.92003" lon="6.51265">
        <ele>2161.661865</ele>
        <time>2012-06-17T09:10:19Z</time>
      </trkpt>
      <trkpt lat="45.92071" lon="6.51252">
        <ele>2170.794189</ele>
        <time>2012-06-17T09:11:42Z</time>
      </trkpt>
      <trkpt lat="45.92057" lon="6.5122">
        <ele>2159.258545</ele>
        <time>2012-06-17T09:13:30Z</time>
      </trkpt>
      <trkpt lat="45.92061" lon="6.51227">
        <ele>2165.026367</ele>
        <time>2012-06-17T09:15:05Z</time>
      </trkpt>
      <trkpt lat="45.92053" lon="6.51228">
        <ele>2157.335938</ele>
        <time>2012-06-17T09:20:18Z</time>
      </trkpt>
      <trkpt lat="45.92054" lon="6.51214">
        <ele>2174.158936</ele>
        <time>2012-06-17T09:32:40Z</time>
      </trkpt>
      <trkpt lat="45.92062" lon="6.51228">
        <ele>2161.181152</ele>
        <time>2012-06-17T10:21:45Z</time>
      </trkpt>
      <trkpt lat="45.92039" lon="6.51216">
        <ele>2161.661865</ele>
        <time>2012-06-17T10:22:32Z</time>
      </trkpt>
      <trkpt lat="45.92024" lon="6.51164">
        <ele>2150.606445</ele>
        <time>2012-06-17T10:23:16Z</time>
      </trkpt>
      <trkpt lat="45.92029" lon="6.51148">
        <ele>2141.474121</ele>
        <time>2012-06-17T10:23:34Z</time>
      </trkpt>
      <trkpt lat="45.9201" lon="6.51089">
        <ele>2130.418945</ele>
        <time>2012-06-17T10:25:30Z</time>
      </trkpt>
      <trkpt lat="45.92073" lon="6.50981">
        <ele>2088.601562</ele>
        <time>2012-06-17T10:27:34Z</time>
      </trkpt>
      <trkpt lat="45.92077" lon="6.50955">
        <ele>2083.794922</ele>
        <time>2012-06-17T10:28:04Z</time>
      </trkpt>
      <trkpt lat="45.92105" lon="6.50946">
        <ele>2072.259033</ele>
        <time>2012-06-17T10:28:52Z</time>
      </trkpt>
      <trkpt lat="45.92149" lon="6.50968">
        <ele>2037.170898</ele>
        <time>2012-06-17T10:30:17Z</time>
      </trkpt>
      <trkpt lat="45.92248" lon="6.5096">
        <ele>1996.315186</ele>
        <time>2012-06-17T10:32:21Z</time>
      </trkpt>
      <trkpt lat="45.92254" lon="6.50946">
        <ele>1990.066406</ele>
        <time>2012-06-17T10:32:37Z</time>
      </trkpt>
      <trkpt lat="45.92233" lon="6.5079">
        <ele>1966.033447</ele>
        <time>2012-06-17T10:35:50Z</time>
      </trkpt>
      <trkpt lat="45.92237" lon="6.5072">
        <ele>1947.768311</ele>
        <time>2012-06-17T10:37:33Z</time>
      </trkpt>
      <trkpt lat="45.92221" lon="6.50706">
        <ele>1942.481201</ele>
        <time>2012-06-17T10:38:19Z</time>
      </trkpt>
      <trkpt lat="45.92288" lon="6.50679">
        <ele>1916.044922</ele>
        <time>2012-06-17T10:40:27Z</time>
      </trkpt>
      <trkpt lat="45.92382" lon="6.50585">
        <ele>1844.907227</ele>
        <time>2012-06-17T10:44:00Z</time>
      </trkpt>
      <trkpt lat="45.92381" lon="6.50529">
        <ele>1827.123047</ele>
        <time>2012-06-17T10:45:05Z</time>
      </trkpt>
      <trkpt lat="45.92395" lon="6.50509">
        <ele>1817.029053</ele>
        <time>2012-06-17T10:45:36Z</time>
      </trkpt>
      <trkpt lat="45.92394" lon="6.50482">
        <ele>1821.835693</ele>
        <time>2012-06-17T10:46:04Z</time>
      </trkpt>
      <trkpt lat="45.92433" lon="6.50445">
        <ele>1788.189697</ele>
        <time>2012-06-17T10:47:21Z</time>
      </trkpt>
      <trkpt lat="45.92418" lon="6.50342">
        <ele>1755.023926</ele>
        <time>2012-06-17T10:49:16Z</time>
      </trkpt>
      <trkpt lat="45.925" lon="6.50249">
        <ele>1710.322754</ele>
        <time>2012-06-17T10:52:16Z</time>
      </trkpt>
      <trkpt lat="45.92508" lon="6.50235">
        <ele>1702.151367</ele>
        <time>2012-06-17T10:53:08Z</time>
      </trkpt>
      <trkpt lat="45.92502" lon="6.50215">
        <ele>1698.786865</ele>
        <time>2012-06-17T10:53:33Z</time>
      </trkpt>
      <trkpt lat="45.9253" lon="6.502">
        <ele>1687.250977</ele>
        <time>2012-06-17T10:54:30Z</time>
      </trkpt>
      <trkpt lat="45.92522" lon="6.50189">
        <ele>1682.44458</ele>
        <time>2012-06-17T10:56:00Z</time>
      </trkpt>
      <trkpt lat="45.92544" lon="6.50161">
        <ele>1667.543945</ele>
        <time>2012-06-17T10:57:05Z</time>
      </trkpt>
      <trkpt lat="45.92578" lon="6.50075">
        <ele>1623.803955</ele>
        <time>2012-06-17T10:59:27Z</time>
      </trkpt>
      <trkpt lat="45.92583" lon="6.50013">
        <ele>1604.577637</ele>
        <time>2012-06-17T11:01:03Z</time>
      </trkpt>
      <trkpt lat="45.92597" lon="6.50034">
        <ele>1599.290527</ele>
        <time>2012-06-17T11:01:35Z</time>
      </trkpt>
      <trkpt lat="45.92659" lon="6.5001">
        <ele>1565.644531</ele>
        <time>2012-06-17T11:03:45Z</time>
      </trkpt>
      <trkpt lat="45.92681" lon="6.50022">
        <ele>1555.550537</ele>
        <time>2012-06-17T11:04:55Z</time>
      </trkpt>
      <trkpt lat="45.92675" lon="6.49857">
        <ele>1527.19165</ele>
        <time>2012-06-17T11:08:03Z</time>
      </trkpt>
      <trkpt lat="45.92656" lon="6.49783">
        <ele>1521.423584</ele>
        <time>2012-06-17T11:08:54Z</time>
      </trkpt>
      <trkpt lat="45.92658" lon="6.49752">
        <ele>1530.075439</ele>
        <time>2012-06-17T11:09:13Z</time>
      </trkpt>
      <trkpt lat="45.92622" lon="6.49684">
        <ele>1520.462402</ele>
        <time>2012-06-17T11:10:02Z</time>
      </trkpt>
      <trkpt lat="45.92618" lon="6.49656">
        <ele>1515.655762</ele>
        <time>2012-06-17T11:10:19Z</time>
      </trkpt>
      <trkpt lat="45.92636" lon="6.49616">
        <ele>1508.926514</ele>
        <time>2012-06-17T11:10:45Z</time>
      </trkpt>
      <trkpt lat="45.92638" lon="6.49519">
        <ele>1501.716797</ele>
        <time>2012-06-17T11:11:39Z</time>
      </trkpt>
      <trkpt lat="45.9265" lon="6.49484">
        <ele>1501.236084</ele>
        <time>2012-06-17T11:12:00Z</time>
      </trkpt>
      <trkpt lat="45.92685" lon="6.49454">
        <ele>1497.390625</ele>
        <time>2012-06-17T11:12:32Z</time>
      </trkpt>
      <trkpt lat="45.92758" lon="6.49485">
        <ele>1499.793945</ele>
        <time>2012-06-17T11:13:26Z</time>
      </trkpt>
      <trkpt lat="45.92765" lon="6.49476">
        <ele>1498.351807</ele>
        <time>2012-06-17T11:13:36Z</time>
      </trkpt>
      <trkpt lat="45.92775" lon="6.49502">
        <ele>1493.064697</ele>
        <time>2012-06-17T11:14:06Z</time>
      </trkpt>
      <trkpt lat="45.92785" lon="6.495">
        <ele>1496.909912</ele>
        <time>2012-06-17T11:14:27Z</time>
      </trkpt>
      <trkpt lat="45.92774" lon="6.49502">
        <ele>1493.54541</ele>
        <time>2012-06-17T11:35:37Z</time>
      </trkpt>
      <trkpt lat="45.9271" lon="6.49355">
        <ele>1495.468018</ele>
        <time>2012-06-17T11:37:27Z</time>
      </trkpt>
      <trkpt lat="45.92701" lon="6.49308">
        <ele>1492.103516</ele>
        <time>2012-06-17T11:37:54Z</time>
      </trkpt>
      <trkpt lat="45.92601" lon="6.49226">
        <ele>1494.026123</ele>
        <time>2012-06-17T11:39:25Z</time>
      </trkpt>
      <trkpt lat="45.92533" lon="6.49214">
        <ele>1499.313232</ele>
        <time>2012-06-17T11:40:26Z</time>
      </trkpt>
      <trkpt lat="45.92488" lon="6.4919">
        <ele>1497.871338</ele>
        <time>2012-06-17T11:41:07Z</time>
      </trkpt>
      <trkpt lat="45.92447" lon="6.49119">
        <ele>1500.755371</ele>
        <time>2012-06-17T11:42:22Z</time>
      </trkpt>
      <trkpt lat="45.92429" lon="6.49109">
        <ele>1499.313232</ele>
        <time>2012-06-17T11:42:37Z</time>
      </trkpt>
      <trkpt lat="45.9238" lon="6.49119">
        <ele>1488.739014</ele>
        <time>2012-06-17T11:43:17Z</time>
      </trkpt>
      <trkpt lat="45.92332" lon="6.49073">
        <ele>1479.606201</ele>
        <time>2012-06-17T11:44:02Z</time>
      </trkpt>
      <trkpt lat="45.92292" lon="6.49055">
        <ele>1473.35791</ele>
        <time>2012-06-17T11:44:34Z</time>
      </trkpt>
      <trkpt lat="45.92162" lon="6.48875">
        <ele>1457.976807</ele>
        <time>2012-06-17T11:46:52Z</time>
      </trkpt>
      <trkpt lat="45.92176" lon="6.48791">
        <ele>1460.860596</ele>
        <time>2012-06-17T11:47:42Z</time>
      </trkpt>
      <trkpt lat="45.92148" lon="6.48703">
        <ele>1465.186523</ele>
        <time>2012-06-17T11:48:38Z</time>
      </trkpt>
      <trkpt lat="45.92118" lon="6.48644">
        <ele>1471.435059</ele>
        <time>2012-06-17T11:49:18Z</time>
      </trkpt>
      <trkpt lat="45.92138" lon="6.48579">
        <ele>1471.435059</ele>
        <time>2012-06-17T11:49:55Z</time>
      </trkpt>
      <trkpt lat="45.92146" lon="6.4851">
        <ele>1468.070557</ele>
        <time>2012-06-17T11:50:29Z</time>
      </trkpt>
      <trkpt lat="45.92235" lon="6.48403">
        <ele>1451.247314</ele>
        <time>2012-06-17T11:52:06Z</time>
      </trkpt>
      <trkpt lat="45.92343" lon="6.48345">
        <ele>1448.363281</ele>
        <time>2012-06-17T11:53:33Z</time>
      </trkpt>
      <trkpt lat="45.92347" lon="6.48333">
        <ele>1446.440918</ele>
        <time>2012-06-17T11:54:00Z</time>
      </trkpt>
    </trkseg>
  </trk>
</gpx>